sensor_id;sensor_type;location;lat;lon;timestamp;pressure;altitude;pressure_sealevel;temperature;humidity
7802;BME280;3945;48.952;9.506;2022-11-15T00:01:34;97737.34;;;10.25;94.12
7802;BME280;3945;48.952;9.506;2022-11-15T00:04:02;97729.13;;;10.26;94.40
7802;BME280;3945;48.952;9.506;2022-11-15T00:06:28;97726.69;;;10.25;94.10
7802;BME280;3945;48.952;9.506;2022-11-15T00:08:54;97734.19;;;10.28;93.07
7802;BME280;3945;48.952;9.506;2022-11-15T00:11:23;97725.97;;;10.29;93.27
7802;BME280;3945;48.952;9.506;2022-11-15T00:13:49;97721.78;;;10.33;92.79
7802;BME280;3945;48.952;9.506;2022-11-15T00:16:17;97721.53;;;10.35;92.69
7802;BME280;3945;48.952;9.506;2022-11-15T00:18:43;97728.53;;;10.41;92.99
7802;BME280;3945;48.952;9.506;2022-11-15T00:21:10;97727.72;;;10.40;92.89
7802;BME280;3945;48.952;9.506;2022-11-15T00:23:37;97721.84;;;10.38;93.36
7802;BME280;3945;48.952;9.506;2022-11-15T00:26:04;97723.44;;;10.39;93.13
7802;BME280;3945;48.952;9.506;2022-11-15T00:28:30;97718.13;;;10.39;93.40
7802;BME280;3945;48.952;9.506;2022-11-15T00:30:59;97713.84;;;10.38;92.93
7802;BME280;3945;48.952;9.506;2022-11-15T00:33:27;97717.66;;;10.42;91.76
7802;BME280;3945;48.952;9.506;2022-11-15T00:35:57;97706.28;;;10.47;90.85
7802;BME280;3945;48.952;9.506;2022-11-15T00:38:25;97707.94;;;10.53;90.51
7802;BME280;3945;48.952;9.506;2022-11-15T00:40:51;97714.06;;;10.53;89.94
7802;BME280;3945;48.952;9.506;2022-11-15T00:43:17;97704.81;;;10.56;90.68
7802;BME280;3945;48.952;9.506;2022-11-15T00:45:44;97709.31;;;10.55;91.47
7802;BME280;3945;48.952;9.506;2022-11-15T00:48:10;97711.16;;;10.55;91.96
7802;BME280;3945;48.952;9.506;2022-11-15T00:50:38;97710.38;;;10.54;91.32
7802;BME280;3945;48.952;9.506;2022-11-15T00:53:04;97714.31;;;10.52;91.19
7802;BME280;3945;48.952;9.506;2022-11-15T00:55:30;97708.22;;;10.51;90.59
7802;BME280;3945;48.952;9.506;2022-11-15T00:57:57;97702.63;;;10.53;90.63
7802;BME280;3945;48.952;9.506;2022-11-15T01:00:23;97702.38;;;10.54;90.82
7802;BME280;3945;48.952;9.506;2022-11-15T01:02:50;97703.66;;;10.52;91.27
7802;BME280;3945;48.952;9.506;2022-11-15T01:05:16;97701.81;;;10.52;91.40
7802;BME280;3945;48.952;9.506;2022-11-15T01:07:44;97693.28;;;10.50;91.95
7802;BME280;3945;48.952;9.506;2022-11-15T01:10:10;97699.44;;;10.51;92.00
7802;BME280;3945;48.952;9.506;2022-11-15T01:12:37;97693.22;;;10.45;91.73
7802;BME280;3945;48.952;9.506;2022-11-15T01:15:04;97688.16;;;10.44;91.58
7802;BME280;3945;48.952;9.506;2022-11-15T01:17:30;97686.53;;;10.43;92.49
7802;BME280;3945;48.952;9.506;2022-11-15T01:19:57;97678.22;;;10.39;92.70
7802;BME280;3945;48.952;9.506;2022-11-15T01:22:23;97679.22;;;10.33;92.18
7802;BME280;3945;48.952;9.506;2022-11-15T01:24:51;97664.81;;;10.29;92.27
7802;BME280;3945;48.952;9.506;2022-11-15T01:27:18;97659.41;;;10.24;91.79
7802;BME280;3945;48.952;9.506;2022-11-15T01:29:44;97659.91;;;10.21;92.26
7802;BME280;3945;48.952;9.506;2022-11-15T01:32:10;97658.53;;;10.18;92.08
7802;BME280;3945;48.952;9.506;2022-11-15T01:34:37;97657.94;;;10.16;91.10
7802;BME280;3945;48.952;9.506;2022-11-15T01:37:03;97653.94;;;10.14;90.67
7802;BME280;3945;48.952;9.506;2022-11-15T01:39:30;97655.72;;;10.08;89.80
7802;BME280;3945;48.952;9.506;2022-11-15T01:41:57;97647.22;;;10.11;87.46
7802;BME280;3945;48.952;9.506;2022-11-15T01:44:38;97656.59;;;10.14;87.58
7802;BME280;3945;48.952;9.506;2022-11-15T01:47:05;97655.72;;;10.08;88.35
7802;BME280;3945;48.952;9.506;2022-11-15T01:49:34;97655.84;;;10.02;88.63
7802;BME280;3945;48.952;9.506;2022-11-15T01:52:04;97658.53;;;10.02;87.98
7802;BME280;3945;48.952;9.506;2022-11-15T01:54:31;97656.59;;;9.97;88.27
7802;BME280;3945;48.952;9.506;2022-11-15T01:57:01;97653.88;;;9.92;88.34
7802;BME280;3945;48.952;9.506;2022-11-15T01:59:28;97657.25;;;9.88;88.56
7802;BME280;3945;48.952;9.506;2022-11-15T02:01:55;97651.84;;;9.83;88.29
7802;BME280;3945;48.952;9.506;2022-11-15T02:04:25;97640.81;;;9.74;88.74
7802;BME280;3945;48.952;9.506;2022-11-15T02:06:51;97651.03;;;9.65;88.73
7802;BME280;3945;48.952;9.506;2022-11-15T02:09:18;97650.97;;;9.60;89.32
7802;BME280;3945;48.952;9.506;2022-11-15T02:11:45;97649.53;;;9.53;89.86
7802;BME280;3945;48.952;9.506;2022-11-15T02:14:14;97645.50;;;9.50;89.42
7802;BME280;3945;48.952;9.506;2022-11-15T02:16:43;97643.31;;;9.47;89.31
7802;BME280;3945;48.952;9.506;2022-11-15T02:19:19;97640.81;;;9.40;89.73
7802;BME280;3945;48.952;9.506;2022-11-15T02:21:53;97631.97;;;9.35;89.60
7802;BME280;3945;48.952;9.506;2022-11-15T02:27:23;97629.56;;;9.33;89.74
7802;BME280;3945;48.952;9.506;2022-11-15T02:30:02;97621.00;;;9.31;90.25
7802;BME280;3945;48.952;9.506;2022-11-15T02:32:32;97625.19;;;9.27;90.70
7802;BME280;3945;48.952;9.506;2022-11-15T02:35:02;97622.63;;;9.32;89.89
7802;BME280;3945;48.952;9.506;2022-11-15T02:37:35;97627.94;;;9.32;90.07
7802;BME280;3945;48.952;9.506;2022-11-15T02:40:06;97616.50;;;9.32;90.13
7802;BME280;3945;48.952;9.506;2022-11-15T02:42:38;97612.88;;;9.38;90.21
7802;BME280;3945;48.952;9.506;2022-11-15T02:45:26;97612.50;;;9.46;89.96
7802;BME280;3945;48.952;9.506;2022-11-15T02:47:56;97620.81;;;9.50;90.34
7802;BME280;3945;48.952;9.506;2022-11-15T02:50:24;97611.78;;;9.51;90.71
7802;BME280;3945;48.952;9.506;2022-11-15T02:52:52;97609.13;;;9.51;91.00
7802;BME280;3945;48.952;9.506;2022-11-15T02:55:25;97602.75;;;9.52;90.46
7802;BME280;3945;48.952;9.506;2022-11-15T02:57:52;97601.16;;;9.51;90.59
7802;BME280;3945;48.952;9.506;2022-11-15T03:00:24;97598.75;;;9.49;91.26
7802;BME280;3945;48.952;9.506;2022-11-15T03:02:59;97597.38;;;9.47;91.79
7802;BME280;3945;48.952;9.506;2022-11-15T03:05:31;97590.53;;;9.51;91.45
7802;BME280;3945;48.952;9.506;2022-11-15T03:08:02;97592.47;;;9.55;91.54
7802;BME280;3945;48.952;9.506;2022-11-15T03:10:32;97594.63;;;9.58;92.08
7802;BME280;3945;48.952;9.506;2022-11-15T03:13:03;97590.91;;;9.59;92.70
7802;BME280;3945;48.952;9.506;2022-11-15T03:15:31;97589.16;;;9.65;93.30
7802;BME280;3945;48.952;9.506;2022-11-15T03:18:02;97587.56;;;9.64;92.79
7802;BME280;3945;48.952;9.506;2022-11-15T03:20:30;97580.94;;;9.66;93.28
7802;BME280;3945;48.952;9.506;2022-11-15T03:22:59;97580.38;;;9.64;93.48
7802;BME280;3945;48.952;9.506;2022-11-15T03:25:26;97575.06;;;9.64;93.48
7802;BME280;3945;48.952;9.506;2022-11-15T03:27:54;97572.97;;;9.66;93.66
7802;BME280;3945;48.952;9.506;2022-11-15T03:30:23;97576.19;;;9.68;94.19
7802;BME280;3945;48.952;9.506;2022-11-15T03:32:51;97563.72;;;9.69;93.27
7802;BME280;3945;48.952;9.506;2022-11-15T03:35:21;97573.53;;;9.68;93.91
7802;BME280;3945;48.952;9.506;2022-11-15T03:37:49;97576.66;;;9.65;93.99
7802;BME280;3945;48.952;9.506;2022-11-15T03:40:17;97570.56;;;9.65;94.11
7802;BME280;3945;48.952;9.506;2022-11-15T03:42:46;97563.38;;;9.65;94.29
7802;BME280;3945;48.952;9.506;2022-11-15T03:45:16;97562.59;;;9.65;93.78
7802;BME280;3945;48.952;9.506;2022-11-15T03:47:45;97555.66;;;9.64;93.89
7802;BME280;3945;48.952;9.506;2022-11-15T03:50:13;97554.88;;;9.63;94.32
7802;BME280;3945;48.952;9.506;2022-11-15T03:52:43;97553.81;;;9.64;94.34
7802;BME280;3945;48.952;9.506;2022-11-15T03:55:13;97548.97;;;9.61;94.38
7802;BME280;3945;48.952;9.506;2022-11-15T03:57:39;97547.59;;;9.59;94.26
7802;BME280;3945;48.952;9.506;2022-11-15T04:00:06;97543.59;;;9.56;94.70
7802;BME280;3945;48.952;9.506;2022-11-15T04:02:33;97547.53;;;9.54;94.26
7802;BME280;3945;48.952;9.506;2022-11-15T04:04:59;97540.06;;;9.51;94.53
7802;BME280;3945;48.952;9.506;2022-11-15T04:07:26;97536.28;;;9.47;94.63
7802;BME280;3945;48.952;9.506;2022-11-15T04:09:53;97542.63;;;9.46;94.30
7802;BME280;3945;48.952;9.506;2022-11-15T04:12:28;97537.81;;;9.43;94.52
7802;BME280;3945;48.952;9.506;2022-11-15T04:14:58;97539.91;;;9.40;94.84
7802;BME280;3945;48.952;9.506;2022-11-15T04:17:34;97538.78;;;9.36;94.78
7802;BME280;3945;48.952;9.506;2022-11-15T04:20:01;97531.53;;;9.32;94.99
7802;BME280;3945;48.952;9.506;2022-11-15T04:22:45;97537.34;;;9.29;94.81
7802;BME280;3945;48.952;9.506;2022-11-15T04:25:31;97530.91;;;9.25;94.68
7802;BME280;3945;48.952;9.506;2022-11-15T04:27:57;97525.53;;;9.20;94.49
7802;BME280;3945;48.952;9.506;2022-11-15T04:30:23;97525.75;;;9.18;94.50
7802;BME280;3945;48.952;9.506;2022-11-15T04:32:50;97521.72;;;9.16;94.06
7802;BME280;3945;48.952;9.506;2022-11-15T04:35:16;97524.66;;;9.14;94.23
7802;BME280;3945;48.952;9.506;2022-11-15T04:37:42;97527.28;;;9.14;94.11
7802;BME280;3945;48.952;9.506;2022-11-15T04:40:09;97528.34;;;9.13;94.06
7802;BME280;3945;48.952;9.506;2022-11-15T04:42:37;97532.78;;;9.08;93.70
7802;BME280;3945;48.952;9.506;2022-11-15T04:45:03;97530.00;;;9.02;93.63
7802;BME280;3945;48.952;9.506;2022-11-15T04:47:30;97526.00;;;9.00;93.53
7802;BME280;3945;48.952;9.506;2022-11-15T04:49:56;97529.59;;;8.94;93.21
7802;BME280;3945;48.952;9.506;2022-11-15T04:52:22;97533.56;;;8.91;93.17
7802;BME280;3945;48.952;9.506;2022-11-15T04:54:49;97523.91;;;8.85;93.43
7802;BME280;3945;48.952;9.506;2022-11-15T04:57:15;97531.44;;;8.77;92.36
7802;BME280;3945;48.952;9.506;2022-11-15T04:59:43;97526.75;;;8.67;92.21
7802;BME280;3945;48.952;9.506;2022-11-15T05:02:09;97535.31;;;8.57;92.59
7802;BME280;3945;48.952;9.506;2022-11-15T05:04:36;97537.41;;;8.55;92.53
7802;BME280;3945;48.952;9.506;2022-11-15T05:07:01;97526.47;;;8.52;92.21
7802;BME280;3945;48.952;9.506;2022-11-15T05:09:27;97523.16;;;8.45;92.04
7802;BME280;3945;48.952;9.506;2022-11-15T05:11:54;97514.31;;;8.39;92.67
7802;BME280;3945;48.952;9.506;2022-11-15T05:14:20;97511.56;;;8.34;92.68
7802;BME280;3945;48.952;9.506;2022-11-15T05:16:48;97510.19;;;8.32;93.03
7802;BME280;3945;48.952;9.506;2022-11-15T05:19:14;97523.09;;;8.28;93.33
7802;BME280;3945;48.952;9.506;2022-11-15T05:21:41;97522.16;;;8.22;93.24
7802;BME280;3945;48.952;9.506;2022-11-15T05:24:08;97518.38;;;8.18;93.30
7802;BME280;3945;48.952;9.506;2022-11-15T05:26:35;97514.03;;;8.12;94.43
7802;BME280;3945;48.952;9.506;2022-11-15T05:29:02;97506.53;;;8.09;94.43
7802;BME280;3945;48.952;9.506;2022-11-15T05:31:28;97509.56;;;8.01;94.80
7802;BME280;3945;48.952;9.506;2022-11-15T05:33:56;97504.75;;;7.98;95.83
7802;BME280;3945;48.952;9.506;2022-11-15T05:36:26;97503.00;;;8.04;96.59
7802;BME280;3945;48.952;9.506;2022-11-15T05:38:53;97504.13;;;8.08;95.89
7802;BME280;3945;48.952;9.506;2022-11-15T05:41:20;97503.09;;;8.09;96.08
7802;BME280;3945;48.952;9.506;2022-11-15T05:43:48;97503.56;;;8.06;96.42
7802;BME280;3945;48.952;9.506;2022-11-15T05:46:15;97493.53;;;8.08;96.17
7802;BME280;3945;48.952;9.506;2022-11-15T05:48:43;97494.56;;;8.07;96.25
7802;BME280;3945;48.952;9.506;2022-11-15T05:51:12;97499.16;;;8.11;95.84
7802;BME280;3945;48.952;9.506;2022-11-15T05:53:40;97488.00;;;8.09;96.14
7802;BME280;3945;48.952;9.506;2022-11-15T05:56:06;97494.31;;;8.08;96.01
7802;BME280;3945;48.952;9.506;2022-11-15T05:58:34;97493.53;;;8.08;96.49
7802;BME280;3945;48.952;9.506;2022-11-15T06:01:02;97491.91;;;8.07;96.30
7802;BME280;3945;48.952;9.506;2022-11-15T06:03:28;97492.72;;;8.07;96.72
7802;BME280;3945;48.952;9.506;2022-11-15T06:05:55;97492.97;;;8.06;97.85
7802;BME280;3945;48.952;9.506;2022-11-15T06:08:23;97492.84;;;8.01;97.22
7802;BME280;3945;48.952;9.506;2022-11-15T06:10:49;97492.03;;;8.00;97.07
7802;BME280;3945;48.952;9.506;2022-11-15T06:13:16;97488.34;;;8.01;97.37
7802;BME280;3945;48.952;9.506;2022-11-15T06:15:42;97497.91;;;8.02;97.38
7802;BME280;3945;48.952;9.506;2022-11-15T06:18:08;97501.38;;;8.03;98.28
7802;BME280;3945;48.952;9.506;2022-11-15T06:20:35;97498.72;;;8.03;97.51
7802;BME280;3945;48.952;9.506;2022-11-15T06:23:02;97500.91;;;8.06;98.51
7802;BME280;3945;48.952;9.506;2022-11-15T06:25:30;97503.88;;;8.09;98.00
7802;BME280;3945;48.952;9.506;2022-11-15T06:27:57;97509.28;;;8.14;97.80
7802;BME280;3945;48.952;9.506;2022-11-15T06:30:24;97511.94;;;8.14;98.32
7802;BME280;3945;48.952;9.506;2022-11-15T06:32:51;97508.97;;;8.11;98.27
7802;BME280;3945;48.952;9.506;2022-11-15T06:35:18;97499.75;;;8.13;97.59
7802;BME280;3945;48.952;9.506;2022-11-15T06:37:44;97503.97;;;8.14;97.66
7802;BME280;3945;48.952;9.506;2022-11-15T06:40:11;97505.38;;;8.17;97.48
7802;BME280;3945;48.952;9.506;2022-11-15T06:42:38;97503.53;;;8.17;97.42
7802;BME280;3945;48.952;9.506;2022-11-15T06:45:05;97510.44;;;8.18;97.28
7802;BME280;3945;48.952;9.506;2022-11-15T06:47:32;97502.81;;;8.22;96.97
7802;BME280;3945;48.952;9.506;2022-11-15T06:49:58;97503.88;;;8.21;97.04
7802;BME280;3945;48.952;9.506;2022-11-15T06:52:24;97504.31;;;8.18;96.83
7802;BME280;3945;48.952;9.506;2022-11-15T06:54:51;97511.25;;;8.19;96.77
7802;BME280;3945;48.952;9.506;2022-11-15T06:57:17;97518.97;;;8.20;96.93
7802;BME280;3945;48.952;9.506;2022-11-15T06:59:45;97518.97;;;8.20;96.20
7802;BME280;3945;48.952;9.506;2022-11-15T07:02:11;97513.91;;;8.19;96.97
7802;BME280;3945;48.952;9.506;2022-11-15T07:04:38;97514.13;;;8.17;96.03
7802;BME280;3945;48.952;9.506;2022-11-15T07:07:04;97514.03;;;8.12;96.70
7802;BME280;3945;48.952;9.506;2022-11-15T07:09:31;97509.19;;;8.09;96.83
7802;BME280;3945;48.952;9.506;2022-11-15T07:11:57;97503.09;;;8.09;96.21
7802;BME280;3945;48.952;9.506;2022-11-15T07:14:23;97508.25;;;8.15;96.67
7802;BME280;3945;48.952;9.506;2022-11-15T07:16:51;97500.28;;;8.15;96.29
7802;BME280;3945;48.952;9.506;2022-11-15T07:19:17;97507.22;;;8.16;96.15
7802;BME280;3945;48.952;9.506;2022-11-15T07:21:44;97496.84;;;8.15;96.19
7802;BME280;3945;48.952;9.506;2022-11-15T07:24:10;97504.78;;;8.15;96.82
7802;BME280;3945;48.952;9.506;2022-11-15T07:26:36;97503.19;;;8.14;97.27
7802;BME280;3945;48.952;9.506;2022-11-15T07:29:03;97507.78;;;8.18;96.63
7802;BME280;3945;48.952;9.506;2022-11-15T07:31:29;97510.53;;;8.23;96.68
7802;BME280;3945;48.952;9.506;2022-11-15T07:33:57;97508.22;;;8.27;97.28
7802;BME280;3945;48.952;9.506;2022-11-15T07:36:23;97507.19;;;8.28;97.20
7802;BME280;3945;48.952;9.506;2022-11-15T07:38:50;97505.47;;;8.34;96.90
7802;BME280;3945;48.952;9.506;2022-11-15T07:41:16;97500.97;;;8.34;96.43
7802;BME280;3945;48.952;9.506;2022-11-15T07:43:42;97507.06;;;8.35;96.82
7802;BME280;3945;48.952;9.506;2022-11-15T07:46:09;97504.97;;;8.37;96.35
7802;BME280;3945;48.952;9.506;2022-11-15T07:48:35;97510.28;;;8.37;97.14
7802;BME280;3945;48.952;9.506;2022-11-15T07:51:03;97508.19;;;8.39;96.46
7802;BME280;3945;48.952;9.506;2022-11-15T07:53:29;97509.56;;;8.41;96.57
7802;BME280;3945;48.952;9.506;2022-11-15T07:55:56;97510.94;;;8.44;96.81
7802;BME280;3945;48.952;9.506;2022-11-15T07:58:22;97509.19;;;8.49;96.72
7802;BME280;3945;48.952;9.506;2022-11-15T08:00:48;97503.19;;;8.54;96.78
7802;BME280;3945;48.952;9.506;2022-11-15T08:03:15;97500.59;;;8.59;96.46
7802;BME280;3945;48.952;9.506;2022-11-15T08:05:42;97500.00;;;8.69;96.87
7802;BME280;3945;48.952;9.506;2022-11-15T08:08:10;97497.53;;;8.79;97.15
7802;BME280;3945;48.952;9.506;2022-11-15T08:10:37;97495.81;;;8.89;96.64
7802;BME280;3945;48.952;9.506;2022-11-15T08:13:04;97491.50;;;9.00;96.97
7802;BME280;3945;48.952;9.506;2022-11-15T08:15:31;97492.69;;;9.09;96.80
7802;BME280;3945;48.952;9.506;2022-11-15T08:17:58;97486.19;;;9.17;97.12
7802;BME280;3945;48.952;9.506;2022-11-15T08:20:25;97486.00;;;9.23;96.87
7802;BME280;3945;48.952;9.506;2022-11-15T08:22:54;97488.03;;;9.33;96.49
7802;BME280;3945;48.952;9.506;2022-11-15T08:25:22;97486.63;;;9.47;96.34
7802;BME280;3945;48.952;9.506;2022-11-15T08:27:51;97475.53;;;9.50;96.88
7802;BME280;3945;48.952;9.506;2022-11-15T08:30:17;97482.28;;;9.58;96.64
7802;BME280;3945;48.952;9.506;2022-11-15T08:32:44;97483.94;;;9.64;96.34
7802;BME280;3945;48.952;9.506;2022-11-15T08:35:10;97482.22;;;9.74;95.85
7802;BME280;3945;48.952;9.506;2022-11-15T08:37:37;97474.63;;;9.83;96.02
7802;BME280;3945;48.952;9.506;2022-11-15T08:40:03;97477.16;;;9.95;96.72
7802;BME280;3945;48.952;9.506;2022-11-15T08:42:31;97464.03;;;10.10;97.47
7802;BME280;3945;48.952;9.506;2022-11-15T08:44:57;97466.41;;;10.28;96.80
7802;BME280;3945;48.952;9.506;2022-11-15T08:47:24;97460.72;;;10.46;95.02
7802;BME280;3945;48.952;9.506;2022-11-15T08:49:50;97458.78;;;10.64;93.26
7802;BME280;3945;48.952;9.506;2022-11-15T08:52:16;97468.50;;;10.80;91.94
7802;BME280;3945;48.952;9.506;2022-11-15T08:54:43;97454.81;;;10.98;92.34
7802;BME280;3945;48.952;9.506;2022-11-15T08:57:09;97453.31;;;11.12;93.17
7802;BME280;3945;48.952;9.506;2022-11-15T08:59:37;97445.41;;;11.22;92.61
7802;BME280;3945;48.952;9.506;2022-11-15T09:02:04;97451.31;;;11.29;92.21
7802;BME280;3945;48.952;9.506;2022-11-15T09:04:30;97443.03;;;11.31;88.08
7802;BME280;3945;48.952;9.506;2022-11-15T09:06:57;97443.59;;;11.33;89.04
7802;BME280;3945;48.952;9.506;2022-11-15T09:09:23;97445.50;;;11.38;87.30
7802;BME280;3945;48.952;9.506;2022-11-15T09:11:49;97446.31;;;11.38;88.38
7802;BME280;3945;48.952;9.506;2022-11-15T09:14:16;97436.16;;;11.40;87.83
7802;BME280;3945;48.952;9.506;2022-11-15T09:16:44;97431.94;;;11.44;85.78
7802;BME280;3945;48.952;9.506;2022-11-15T09:19:10;97432.25;;;11.53;84.26
7802;BME280;3945;48.952;9.506;2022-11-15T09:21:37;97425.91;;;11.64;83.33
7802;BME280;3945;48.952;9.506;2022-11-15T09:24:03;97422.53;;;11.79;82.41
7802;BME280;3945;48.952;9.506;2022-11-15T09:26:29;97425.53;;;11.92;81.48
7802;BME280;3945;48.952;9.506;2022-11-15T09:28:56;97422.09;;;12.07;82.46
7802;BME280;3945;48.952;9.506;2022-11-15T09:31:22;97416.81;;;12.17;82.08
7802;BME280;3945;48.952;9.506;2022-11-15T09:33:50;97425.88;;;12.26;82.97
7802;BME280;3945;48.952;9.506;2022-11-15T09:36:17;97421.63;;;12.35;84.72
7802;BME280;3945;48.952;9.506;2022-11-15T09:38:43;97423.00;;;12.43;84.61
7802;BME280;3945;48.952;9.506;2022-11-15T09:41:17;97418.44;;;12.53;83.83
7802;BME280;3945;48.952;9.506;2022-11-15T09:43:52;97418.75;;;12.67;84.78
7802;BME280;3945;48.952;9.506;2022-11-15T09:46:24;97417.94;;;12.77;86.34
7802;BME280;3945;48.952;9.506;2022-11-15T09:48:56;97408.31;;;12.86;87.49
7802;BME280;3945;48.952;9.506;2022-11-15T09:51:25;97407.53;;;12.96;87.24
7802;BME280;3945;48.952;9.506;2022-11-15T09:53:55;97398.69;;;13.05;87.06
7802;BME280;3945;48.952;9.506;2022-11-15T09:56:23;97395.78;;;13.17;84.03
7802;BME280;3945;48.952;9.506;2022-11-15T09:58:54;97395.47;;;13.28;82.80
7802;BME280;3945;48.952;9.506;2022-11-15T10:01:28;97395.16;;;13.40;82.80
7802;BME280;3945;48.952;9.506;2022-11-15T10:04:01;97401.56;;;13.49;84.73
7802;BME280;3945;48.952;9.506;2022-11-15T10:06:27;97395.13;;;13.60;83.98
7802;BME280;3945;48.952;9.506;2022-11-15T10:08:55;97398.00;;;13.74;84.83
7802;BME280;3945;48.952;9.506;2022-11-15T10:11:25;97393.59;;;13.98;84.97
7802;BME280;3945;48.952;9.506;2022-11-15T10:13:53;97390.03;;;14.18;84.57
7802;BME280;3945;48.952;9.506;2022-11-15T10:16:46;97392.34;;;14.40;82.62
7802;BME280;3945;48.952;9.506;2022-11-15T10:19:20;97387.09;;;14.59;80.30
7802;BME280;3945;48.952;9.506;2022-11-15T10:21:52;97384.69;;;14.62;79.24
7802;BME280;3945;48.952;9.506;2022-11-15T10:24:24;97389.47;;;14.65;76.40
7802;BME280;3945;48.952;9.506;2022-11-15T10:26:53;97386.56;;;14.62;76.43
7802;BME280;3945;48.952;9.506;2022-11-15T10:29:20;97389.72;;;14.64;75.47
7802;BME280;3945;48.952;9.506;2022-11-15T10:31:46;97383.84;;;14.67;76.52
7802;BME280;3945;48.952;9.506;2022-11-15T10:34:14;97377.13;;;14.69;78.40
7802;BME280;3945;48.952;9.506;2022-11-15T10:36:45;97374.94;;;14.76;79.30
7802;BME280;3945;48.952;9.506;2022-11-15T10:39:12;97371.13;;;14.82;78.73
7802;BME280;3945;48.952;9.506;2022-11-15T10:41:39;97363.81;;;14.88;78.69
7802;BME280;3945;48.952;9.506;2022-11-15T10:44:16;97359.78;;;14.91;77.55
7802;BME280;3945;48.952;9.506;2022-11-15T10:46:44;97352.78;;;14.95;76.98
7802;BME280;3945;48.952;9.506;2022-11-15T10:49:12;97359.47;;;14.97;75.67
7802;BME280;3945;48.952;9.506;2022-11-15T10:51:40;97342.81;;;15.00;76.77
7802;BME280;3945;48.952;9.506;2022-11-15T10:54:09;97350.56;;;15.02;77.09
7802;BME280;3945;48.952;9.506;2022-11-15T10:56:36;97347.03;;;15.06;77.23
7802;BME280;3945;48.952;9.506;2022-11-15T10:59:03;97343.50;;;15.11;77.96
7802;BME280;3945;48.952;9.506;2022-11-15T11:01:29;97339.44;;;15.13;77.65
7802;BME280;3945;48.952;9.506;2022-11-15T11:04:01;97341.06;;;15.14;77.45
7802;BME280;3945;48.952;9.506;2022-11-15T11:06:27;97329.78;;;15.17;77.62
7802;BME280;3945;48.952;9.506;2022-11-15T11:08:55;97322.75;;;15.21;76.03
7802;BME280;3945;48.952;9.506;2022-11-15T11:11:23;97324.06;;;15.24;72.47
7802;BME280;3945;48.952;9.506;2022-11-15T11:13:50;97326.19;;;15.27;73.43
7802;BME280;3945;48.952;9.506;2022-11-15T11:16:34;97322.63;;;15.32;74.59
7802;BME280;3945;48.952;9.506;2022-11-15T11:19:08;97325.84;;;15.34;75.50
7802;BME280;3945;48.952;9.506;2022-11-15T11:21:39;97318.28;;;15.36;75.90
7802;BME280;3945;48.952;9.506;2022-11-15T11:24:08;97325.53;;;15.35;75.96
7802;BME280;3945;48.952;9.506;2022-11-15T11:26:40;97322.84;;;15.35;74.38
7802;BME280;3945;48.952;9.506;2022-11-15T11:29:12;97320.97;;;15.36;74.99
7802;BME280;3945;48.952;9.506;2022-11-15T11:31:42;97323.38;;;15.37;76.17
7802;BME280;3945;48.952;9.506;2022-11-15T11:34:13;97326.78;;;15.43;76.62
7802;BME280;3945;48.952;9.506;2022-11-15T11:36:43;97328.91;;;15.46;72.87
7802;BME280;3945;48.952;9.506;2022-11-15T11:39:18;97319.50;;;15.48;73.09
7802;BME280;3945;48.952;9.506;2022-11-15T11:41:50;97321.34;;;15.53;73.45
7802;BME280;3945;48.952;9.506;2022-11-15T11:44:24;97321.06;;;15.54;74.63
7802;BME280;3945;48.952;9.506;2022-11-15T11:46:54;97328.53;;;15.57;75.21
7802;BME280;3945;48.952;9.506;2022-11-15T11:49:23;97312.66;;;15.61;74.84
7802;BME280;3945;48.952;9.506;2022-11-15T11:51:54;97317.75;;;15.63;73.49
7802;BME280;3945;48.952;9.506;2022-11-15T11:54:22;97312.59;;;15.66;72.29
7802;BME280;3945;48.952;9.506;2022-11-15T11:56:53;97314.41;;;15.71;73.51
7802;BME280;3945;48.952;9.506;2022-11-15T11:59:25;97306.59;;;15.74;74.45
7802;BME280;3945;48.952;9.506;2022-11-15T12:01:54;97304.91;;;15.78;74.13
7802;BME280;3945;48.952;9.506;2022-11-15T12:04:24;97298.69;;;15.83;73.72
7802;BME280;3945;48.952;9.506;2022-11-15T12:06:54;97292.97;;;15.89;73.40
7802;BME280;3945;48.952;9.506;2022-11-15T12:09:23;97286.44;;;15.95;72.03
7802;BME280;3945;48.952;9.506;2022-11-15T12:12:02;97292.78;;;15.99;71.21
7802;BME280;3945;48.952;9.506;2022-11-15T12:14:33;97277.00;;;15.98;71.08
7802;BME280;3945;48.952;9.506;2022-11-15T12:17:01;97267.56;;;16.00;70.89
7802;BME280;3945;48.952;9.506;2022-11-15T12:19:28;97271.84;;;16.01;70.94
7802;BME280;3945;48.952;9.506;2022-11-15T12:21:56;97262.19;;;16.00;71.61
7802;BME280;3945;48.952;9.506;2022-11-15T12:24:26;97252.75;;;16.03;71.80
7802;BME280;3945;48.952;9.506;2022-11-15T12:26:55;97258.66;;;16.05;71.25
7802;BME280;3945;48.952;9.506;2022-11-15T12:29:26;97250.78;;;16.09;70.81
7802;BME280;3945;48.952;9.506;2022-11-15T12:31:54;97248.03;;;16.14;71.21
7802;BME280;3945;48.952;9.506;2022-11-15T12:34:35;97247.88;;;16.24;72.72
7802;BME280;3945;48.952;9.506;2022-11-15T12:37:02;97243.94;;;16.35;72.35
7802;BME280;3945;48.952;9.506;2022-11-15T12:40:17;97245.06;;;16.48;72.39
7802;BME280;3945;48.952;9.506;2022-11-15T12:42:56;97234.91;;;16.58;70.88
7802;BME280;3945;48.952;9.506;2022-11-15T12:45:24;97235.06;;;16.67;65.04
7802;BME280;3945;48.952;9.506;2022-11-15T12:47:51;97240.72;;;16.65;65.32
7802;BME280;3945;48.952;9.506;2022-11-15T12:50:21;97237.06;;;16.61;67.72
7802;BME280;3945;48.952;9.506;2022-11-15T12:53:26;97235.44;;;16.60;64.93
7802;BME280;3945;48.952;9.506;2022-11-15T12:58:50;97233.69;;;16.51;65.39
7802;BME280;3945;48.952;9.506;2022-11-15T13:04:11;97239.75;;;16.42;65.72
7802;BME280;3945;48.952;9.506;2022-11-15T13:06:39;97236.06;;;16.38;64.98
7802;BME280;3945;48.952;9.506;2022-11-15T13:11:48;97233.25;;;16.30;65.97
7802;BME280;3945;48.952;9.506;2022-11-15T13:17:15;97226.38;;;16.24;67.60
7802;BME280;3945;48.952;9.506;2022-11-15T13:19:43;97224.50;;;16.24;69.45
7802;BME280;3945;48.952;9.506;2022-11-15T13:22:09;97219.41;;;16.23;68.08
7802;BME280;3945;48.952;9.506;2022-11-15T13:24:53;97217.03;;;16.21;69.09
7802;BME280;3945;48.952;9.506;2022-11-15T13:27:20;97216.25;;;16.21;70.46
7802;BME280;3945;48.952;9.506;2022-11-15T13:29:47;97214.84;;;16.23;70.46
7802;BME280;3945;48.952;9.506;2022-11-15T13:32:15;97205.19;;;16.22;68.13
7802;BME280;3945;48.952;9.506;2022-11-15T13:34:42;97206.28;;;16.21;67.48
7802;BME280;3945;48.952;9.506;2022-11-15T13:37:11;97204.72;;;16.20;66.73
7802;BME280;3945;48.952;9.506;2022-11-15T13:39:53;97203.91;;;16.20;68.48
7802;BME280;3945;48.952;9.506;2022-11-15T13:42:20;97194.25;;;16.19;69.52
7802;BME280;3945;48.952;9.506;2022-11-15T13:44:54;97188.75;;;16.10;68.62
7802;BME280;3945;48.952;9.506;2022-11-15T13:47:22;97185.28;;;16.10;67.47
7802;BME280;3945;48.952;9.506;2022-11-15T13:49:52;97175.72;;;16.04;67.92